sensor_id;sensor_type;location;lat;lon;timestamp;temperature;humidity
68385;DHT22;55336;43.062;25.626;2022-08-20T00:01:35;18.40;99.90
68385;DHT22;55336;43.062;25.626;2022-08-20T00:04:00;18.30;99.90
68385;DHT22;55336;43.062;25.626;2022-08-20T00:06:26;18.30;99.90
68385;DHT22;55336;43.062;25.626;2022-08-20T00:08:52;18.30;99.90
68385;DHT22;55336;43.062;25.626;2022-08-20T00:11:23;18.20;99.90
68385;DHT22;55336;43.062;25.626;2022-08-20T00:13:55;18.20;99.90
68385;DHT22;55336;43.062;25.626;2022-08-20T00:16:24;18.20;99.90
68385;DHT22;55336;43.062;25.626;2022-08-20T00:18:50;18.20;99.90
68385;DHT22;55336;43.062;25.626;2022-08-20T00:21:18;18.10;99.90
68385;DHT22;55336;43.062;25.626;2022-08-20T00:23:47;18.10;99.90
68385;DHT22;55336;43.062;25.626;2022-08-20T00:26:13;18.10;99.90
68385;DHT22;55336;43.062;25.626;2022-08-20T00:28:39;18.10;99.90
68385;DHT22;55336;43.062;25.626;2022-08-20T00:31:08;18.00;99.90
68385;DHT22;55336;43.062;25.626;2022-08-20T00:33:35;18.10;99.90
68385;DHT22;55336;43.062;25.626;2022-08-20T00:36:01;18.10;99.90
68385;DHT22;55336;43.062;25.626;2022-08-20T00:38:33;18.10;99.90
68385;DHT22;55336;43.062;25.626;2022-08-20T00:40:59;18.00;99.90
68385;DHT22;55336;43.062;25.626;2022-08-20T00:43:35;18.00;99.90
68385;DHT22;55336;43.062;25.626;2022-08-20T00:46:05;18.00;99.90
68385;DHT22;55336;43.062;25.626;2022-08-20T00:48:33;18.00;99.90
68385;DHT22;55336;43.062;25.626;2022-08-20T00:53:45;18.00;99.90
68385;DHT22;55336;43.062;25.626;2022-08-20T00:56:12;17.90;99.90
68385;DHT22;55336;43.062;25.626;2022-08-20T00:58:39;17.80;99.90
68385;DHT22;55336;43.062;25.626;2022-08-20T01:01:07;17.80;99.90
68385;DHT22;55336;43.062;25.626;2022-08-20T01:03:34;17.80;99.90
68385;DHT22;55336;43.062;25.626;2022-08-20T01:06:00;17.70;99.90
68385;DHT22;55336;43.062;25.626;2022-08-20T01:08:25;17.70;99.90
68385;DHT22;55336;43.062;25.626;2022-08-20T01:10:53;17.80;99.90
68385;DHT22;55336;43.062;25.626;2022-08-20T01:13:34;17.80;99.90
68385;DHT22;55336;43.062;25.626;2022-08-20T01:16:03;17.80;99.90
68385;DHT22;55336;43.062;25.626;2022-08-20T01:18:32;17.70;99.90
68385;DHT22;55336;43.062;25.626;2022-08-20T01:21:00;17.70;99.90
68385;DHT22;55336;43.062;25.626;2022-08-20T01:26:38;17.70;99.90
68385;DHT22;55336;43.062;25.626;2022-08-20T01:29:09;17.70;99.90
68385;DHT22;55336;43.062;25.626;2022-08-20T01:31:38;17.60;99.90
68385;DHT22;55336;43.062;25.626;2022-08-20T01:34:09;17.60;99.90
68385;DHT22;55336;43.062;25.626;2022-08-20T01:36:41;17.60;99.90
68385;DHT22;55336;43.062;25.626;2022-08-20T01:39:10;17.50;99.90
68385;DHT22;55336;43.062;25.626;2022-08-20T01:44:22;17.50;99.90
68385;DHT22;55336;43.062;25.626;2022-08-20T01:46:50;17.50;99.90
68385;DHT22;55336;43.062;25.626;2022-08-20T01:49:23;17.50;99.90
68385;DHT22;55336;43.062;25.626;2022-08-20T01:51:51;17.50;99.90
68385;DHT22;55336;43.062;25.626;2022-08-20T01:54:18;17.50;99.90
68385;DHT22;55336;43.062;25.626;2022-08-20T01:56:58;17.50;99.90
68385;DHT22;55336;43.062;25.626;2022-08-20T01:59:24;17.50;99.90
68385;DHT22;55336;43.062;25.626;2022-08-20T02:01:51;17.50;99.90
68385;DHT22;55336;43.062;25.626;2022-08-20T02:04:17;17.50;99.90
68385;DHT22;55336;43.062;25.626;2022-08-20T02:06:48;17.40;99.90
68385;DHT22;55336;43.062;25.626;2022-08-20T02:09:14;17.30;99.90
68385;DHT22;55336;43.062;25.626;2022-08-20T02:11:41;17.30;99.90
68385;DHT22;55336;43.062;25.626;2022-08-20T02:14:09;17.30;99.90
68385;DHT22;55336;43.062;25.626;2022-08-20T02:16:37;17.30;99.90
68385;DHT22;55336;43.062;25.626;2022-08-20T02:19:10;17.20;99.90
68385;DHT22;55336;43.062;25.626;2022-08-20T02:21:41;17.20;99.90
68385;DHT22;55336;43.062;25.626;2022-08-20T02:24:08;17.20;99.90
68385;DHT22;55336;43.062;25.626;2022-08-20T02:26:35;17.20;99.90
68385;DHT22;55336;43.062;25.626;2022-08-20T02:29:04;17.10;99.90
68385;DHT22;55336;43.062;25.626;2022-08-20T02:31:31;17.10;99.90
68385;DHT22;55336;43.062;25.626;2022-08-20T02:33:57;17.10;99.90
68385;DHT22;55336;43.062;25.626;2022-08-20T02:36:23;17.10;99.90
68385;DHT22;55336;43.062;25.626;2022-08-20T02:38:51;17.10;99.90
68385;DHT22;55336;43.062;25.626;2022-08-20T02:41:17;17.10;99.90
68385;DHT22;55336;43.062;25.626;2022-08-20T02:43:42;17.10;99.90
68385;DHT22;55336;43.062;25.626;2022-08-20T02:46:08;17.10;99.90
68385;DHT22;55336;43.062;25.626;2022-08-20T02:48:34;17.10;99.90
68385;DHT22;55336;43.062;25.626;2022-08-20T02:51:01;17.00;99.90
68385;DHT22;55336;43.062;25.626;2022-08-20T02:53:34;17.00;99.90
68385;DHT22;55336;43.062;25.626;2022-08-20T02:56:01;17.10;99.90
68385;DHT22;55336;43.062;25.626;2022-08-20T02:58:27;17.10;99.90
68385;DHT22;55336;43.062;25.626;2022-08-20T03:00:53;17.10;99.90
68385;DHT22;55336;43.062;25.626;2022-08-20T03:03:19;17.10;99.90
68385;DHT22;55336;43.062;25.626;2022-08-20T03:05:52;17.00;99.90
68385;DHT22;55336;43.062;25.626;2022-08-20T03:08:19;17.00;99.90
68385;DHT22;55336;43.062;25.626;2022-08-20T03:10:46;17.00;99.90
68385;DHT22;55336;43.062;25.626;2022-08-20T03:13:13;17.00;99.90
68385;DHT22;55336;43.062;25.626;2022-08-20T03:15:42;17.00;99.90
68385;DHT22;55336;43.062;25.626;2022-08-20T03:18:09;17.00;99.90
68385;DHT22;55336;43.062;25.626;2022-08-20T03:20:35;17.00;99.90
68385;DHT22;55336;43.062;25.626;2022-08-20T03:23:02;17.00;99.90
68385;DHT22;55336;43.062;25.626;2022-08-20T03:25:28;17.00;99.90
68385;DHT22;55336;43.062;25.626;2022-08-20T03:27:55;17.00;99.90
68385;DHT22;55336;43.062;25.626;2022-08-20T03:30:23;17.00;99.90
68385;DHT22;55336;43.062;25.626;2022-08-20T03:32:49;17.00;99.90
68385;DHT22;55336;43.062;25.626;2022-08-20T03:35:16;17.00;99.90
68385;DHT22;55336;43.062;25.626;2022-08-20T03:37:42;17.00;99.90
68385;DHT22;55336;43.062;25.626;2022-08-20T03:40:09;17.00;99.90
68385;DHT22;55336;43.062;25.626;2022-08-20T03:42:35;17.00;99.90
68385;DHT22;55336;43.062;25.626;2022-08-20T03:45:01;17.00;99.90
68385;DHT22;55336;43.062;25.626;2022-08-20T03:47:28;17.10;99.90
68385;DHT22;55336;43.062;25.626;2022-08-20T03:49:58;17.10;99.90
68385;DHT22;55336;43.062;25.626;2022-08-20T03:52:24;17.10;99.90
68385;DHT22;55336;43.062;25.626;2022-08-20T03:54:50;17.10;99.90
68385;DHT22;55336;43.062;25.626;2022-08-20T03:57:16;17.20;99.90
68385;DHT22;55336;43.062;25.626;2022-08-20T03:59:43;17.20;99.90
68385;DHT22;55336;43.062;25.626;2022-08-20T04:02:10;17.30;99.90
68385;DHT22;55336;43.062;25.626;2022-08-20T04:04:37;17.30;99.90
68385;DHT22;55336;43.062;25.626;2022-08-20T04:07:13;17.40;99.90
68385;DHT22;55336;43.062;25.626;2022-08-20T04:09:40;17.50;99.90
68385;DHT22;55336;43.062;25.626;2022-08-20T04:12:06;17.50;99.90
68385;DHT22;55336;43.062;25.626;2022-08-20T04:14:33;17.60;99.90
68385;DHT22;55336;43.062;25.626;2022-08-20T04:17:06;17.70;99.90
68385;DHT22;55336;43.062;25.626;2022-08-20T04:19:32;17.80;99.90
68385;DHT22;55336;43.062;25.626;2022-08-20T04:21:58;18.00;99.90
68385;DHT22;55336;43.062;25.626;2022-08-20T04:24:24;18.00;99.90
68385;DHT22;55336;43.062;25.626;2022-08-20T04:26:51;18.10;99.90
68385;DHT22;55336;43.062;25.626;2022-08-20T04:29:17;18.20;99.90
68385;DHT22;55336;43.062;25.626;2022-08-20T04:31:43;18.30;99.90
68385;DHT22;55336;43.062;25.626;2022-08-20T04:34:09;18.30;99.90
68385;DHT22;55336;43.062;25.626;2022-08-20T04:36:35;18.40;99.90
68385;DHT22;55336;43.062;25.626;2022-08-20T04:39:01;18.50;99.90
68385;DHT22;55336;43.062;25.626;2022-08-20T04:41:27;18.60;99.90
68385;DHT22;55336;43.062;25.626;2022-08-20T04:43:55;18.70;99.90
68385;DHT22;55336;43.062;25.626;2022-08-20T04:46:23;18.80;99.90
68385;DHT22;55336;43.062;25.626;2022-08-20T04:48:50;19.00;99.90
68385;DHT22;55336;43.062;25.626;2022-08-20T04:51:16;19.20;99.90
68385;DHT22;55336;43.062;25.626;2022-08-20T04:53:42;19.30;99.90
68385;DHT22;55336;43.062;25.626;2022-08-20T04:56:09;19.40;99.90
68385;DHT22;55336;43.062;25.626;2022-08-20T04:58:38;19.50;99.90
68385;DHT22;55336;43.062;25.626;2022-08-20T05:01:08;19.70;99.90
68385;DHT22;55336;43.062;25.626;2022-08-20T05:03:36;19.90;99.90
68385;DHT22;55336;43.062;25.626;2022-08-20T05:06:07;20.00;99.90
68385;DHT22;55336;43.062;25.626;2022-08-20T05:08:33;20.20;99.90
68385;DHT22;55336;43.062;25.626;2022-08-20T05:11:01;20.30;99.90
68385;DHT22;55336;43.062;25.626;2022-08-20T05:13:27;20.40;99.90
68385;DHT22;55336;43.062;25.626;2022-08-20T05:15:53;20.60;99.90
68385;DHT22;55336;43.062;25.626;2022-08-20T05:18:22;20.70;99.90
68385;DHT22;55336;43.062;25.626;2022-08-20T05:20:48;20.90;99.90
68385;DHT22;55336;43.062;25.626;2022-08-20T05:23:16;21.00;99.90
68385;DHT22;55336;43.062;25.626;2022-08-20T05:25:44;21.20;99.90
68385;DHT22;55336;43.062;25.626;2022-08-20T05:28:24;21.50;99.90
68385;DHT22;55336;43.062;25.626;2022-08-20T05:30:52;21.90;99.90
68385;DHT22;55336;43.062;25.626;2022-08-20T05:33:20;22.20;99.90
68385;DHT22;55336;43.062;25.626;2022-08-20T05:35:47;22.60;99.90
68385;DHT22;55336;43.062;25.626;2022-08-20T05:38:16;23.00;99.90
68385;DHT22;55336;43.062;25.626;2022-08-20T05:40:44;23.50;99.90
68385;DHT22;55336;43.062;25.626;2022-08-20T05:43:11;23.90;99.90
68385;DHT22;55336;43.062;25.626;2022-08-20T05:45:38;24.40;99.90
68385;DHT22;55336;43.062;25.626;2022-08-20T05:48:13;25.00;99.90
68385;DHT22;55336;43.062;25.626;2022-08-20T05:50:40;25.70;96.00
68385;DHT22;55336;43.062;25.626;2022-08-20T05:53:07;26.30;91.70
68385;DHT22;55336;43.062;25.626;2022-08-20T05:55:33;26.80;87.70
68385;DHT22;55336;43.062;25.626;2022-08-20T05:58:05;27.40;84.50
68385;DHT22;55336;43.062;25.626;2022-08-20T06:00:32;27.80;80.50
68385;DHT22;55336;43.062;25.626;2022-08-20T06:02:59;28.20;77.70
68385;DHT22;55336;43.062;25.626;2022-08-20T06:05:43;28.50;75.10
68385;DHT22;55336;43.062;25.626;2022-08-20T06:08:10;28.70;73.20
68385;DHT22;55336;43.062;25.626;2022-08-20T06:10:38;28.20;75.40
68385;DHT22;55336;43.062;25.626;2022-08-20T06:13:05;28.70;71.60
68385;DHT22;55336;43.062;25.626;2022-08-20T06:15:32;29.00;70.50
68385;DHT22;55336;43.062;25.626;2022-08-20T06:17:58;29.40;68.50
68385;DHT22;55336;43.062;25.626;2022-08-20T06:20:24;29.70;65.50
68385;DHT22;55336;43.062;25.626;2022-08-20T06:22:50;30.00;64.70
68385;DHT22;55336;43.062;25.626;2022-08-20T06:25:16;30.20;62.20
68385;DHT22;55336;43.062;25.626;2022-08-20T06:27:42;30.60;60.80
68385;DHT22;55336;43.062;25.626;2022-08-20T06:30:11;30.80;59.70
68385;DHT22;55336;43.062;25.626;2022-08-20T06:32:37;30.90;58.60
68385;DHT22;55336;43.062;25.626;2022-08-20T06:35:07;31.20;58.10
68385;DHT22;55336;43.062;25.626;2022-08-20T06:37:34;31.30;57.70
68385;DHT22;55336;43.062;25.626;2022-08-20T06:40:13;31.60;56.60
68385;DHT22;55336;43.062;25.626;2022-08-20T06:42:39;31.90;56.10
68385;DHT22;55336;43.062;25.626;2022-08-20T06:45:09;32.30;55.00
68385;DHT22;55336;43.062;25.626;2022-08-20T06:47:39;32.50;53.10
68385;DHT22;55336;43.062;25.626;2022-08-20T06:50:12;32.70;51.20
68385;DHT22;55336;43.062;25.626;2022-08-20T06:52:39;33.10;51.00
68385;DHT22;55336;43.062;25.626;2022-08-20T06:55:07;33.60;48.70
68385;DHT22;55336;43.062;25.626;2022-08-20T06:57:35;34.00;48.00
68385;DHT22;55336;43.062;25.626;2022-08-20T07:00:03;34.00;48.10
68385;DHT22;55336;43.062;25.626;2022-08-20T07:02:29;33.90;48.10
68385;DHT22;55336;43.062;25.626;2022-08-20T07:04:55;34.40;45.20
68385;DHT22;55336;43.062;25.626;2022-08-20T07:07:21;35.10;43.80
68385;DHT22;55336;43.062;25.626;2022-08-20T07:09:47;35.70;43.20
68385;DHT22;55336;43.062;25.626;2022-08-20T07:12:13;34.70;45.80
68385;DHT22;55336;43.062;25.626;2022-08-20T07:14:39;35.00;45.80
68385;DHT22;55336;43.062;25.626;2022-08-20T07:17:05;35.60;44.10
68385;DHT22;55336;43.062;25.626;2022-08-20T07:19:31;36.40;39.40
68385;DHT22;55336;43.062;25.626;2022-08-20T07:21:57;36.90;37.10
68385;DHT22;55336;43.062;25.626;2022-08-20T07:24:24;36.80;35.70
68385;DHT22;55336;43.062;25.626;2022-08-20T07:26:50;37.20;35.70
68385;DHT22;55336;43.062;25.626;2022-08-20T07:29:17;37.60;35.10
68385;DHT22;55336;43.062;25.626;2022-08-20T07:31:43;38.00;34.30
68385;DHT22;55336;43.062;25.626;2022-08-20T07:34:28;38.10;34.20
68385;DHT22;55336;43.062;25.626;2022-08-20T07:36:59;38.00;34.60
68385;DHT22;55336;43.062;25.626;2022-08-20T07:39:25;38.20;32.40
68385;DHT22;55336;43.062;25.626;2022-08-20T07:41:51;38.20;32.40
68385;DHT22;55336;43.062;25.626;2022-08-20T07:44:28;38.30;32.60
68385;DHT22;55336;43.062;25.626;2022-08-20T07:46:57;38.60;30.50
68385;DHT22;55336;43.062;25.626;2022-08-20T07:49:22;38.20;31.80
68385;DHT22;55336;43.062;25.626;2022-08-20T07:51:48;38.70;29.90
68385;DHT22;55336;43.062;25.626;2022-08-20T07:54:14;39.10;28.50
68385;DHT22;55336;43.062;25.626;2022-08-20T07:56:40;38.80;27.20
68385;DHT22;55336;43.062;25.626;2022-08-20T07:59:06;38.50;28.00
68385;DHT22;55336;43.062;25.626;2022-08-20T08:01:32;39.30;27.30
68385;DHT22;55336;43.062;25.626;2022-08-20T08:03:59;39.10;26.80
68385;DHT22;55336;43.062;25.626;2022-08-20T08:06:27;39.40;26.30
68385;DHT22;55336;43.062;25.626;2022-08-20T08:08:53;39.60;26.20
68385;DHT22;55336;43.062;25.626;2022-08-20T08:11:19;39.90;26.20
68385;DHT22;55336;43.062;25.626;2022-08-20T08:13:46;39.70;25.20
68385;DHT22;55336;43.062;25.626;2022-08-20T08:16:13;39.90;24.50
68385;DHT22;55336;43.062;25.626;2022-08-20T08:18:45;40.20;25.60
68385;DHT22;55336;43.062;25.626;2022-08-20T08:21:14;40.60;24.30
68385;DHT22;55336;43.062;25.626;2022-08-20T08:23:41;40.30;24.20
68385;DHT22;55336;43.062;25.626;2022-08-20T08:26:13;40.70;24.10
68385;DHT22;55336;43.062;25.626;2022-08-20T08:28:40;40.80;22.40
68385;DHT22;55336;43.062;25.626;2022-08-20T08:31:06;40.90;22.10
68385;DHT22;55336;43.062;25.626;2022-08-20T08:33:32;41.00;22.40
68385;DHT22;55336;43.062;25.626;2022-08-20T08:36:04;41.10;22.00
68385;DHT22;55336;43.062;25.626;2022-08-20T08:38:35;41.10;21.60
68385;DHT22;55336;43.062;25.626;2022-08-20T08:43:56;40.80;21.70
68385;DHT22;55336;43.062;25.626;2022-08-20T08:46:26;41.20;21.80
68385;DHT22;55336;43.062;25.626;2022-08-20T08:48:55;40.80;20.40
68385;DHT22;55336;43.062;25.626;2022-08-20T08:51:42;40.90;21.30
68385;DHT22;55336;43.062;25.626;2022-08-20T08:54:15;41.00;21.10
68385;DHT22;55336;43.062;25.626;2022-08-20T08:56:41;40.70;21.90
68385;DHT22;55336;43.062;25.626;2022-08-20T08:59:08;39.90;22.90
68385;DHT22;55336;43.062;25.626;2022-08-20T09:01:42;40.00;23.60
68385;DHT22;55336;43.062;25.626;2022-08-20T09:04:12;40.30;22.70
68385;DHT22;55336;43.062;25.626;2022-08-20T09:06:38;40.80;21.30
68385;DHT22;55336;43.062;25.626;2022-08-20T09:09:05;40.90;21.20
68385;DHT22;55336;43.062;25.626;2022-08-20T09:11:47;40.70;21.90
68385;DHT22;55336;43.062;25.626;2022-08-20T09:14:14;40.50;21.50
68385;DHT22;55336;43.062;25.626;2022-08-20T09:16:39;40.30;21.70
68385;DHT22;55336;43.062;25.626;2022-08-20T09:19:05;40.30;22.50
68385;DHT22;55336;43.062;25.626;2022-08-20T09:21:31;40.20;21.50
68385;DHT22;55336;43.062;25.626;2022-08-20T09:23:57;40.60;22.30
68385;DHT22;55336;43.062;25.626;2022-08-20T09:26:23;41.10;20.60
68385;DHT22;55336;43.062;25.626;2022-08-20T09:28:49;41.30;20.10
68385;DHT22;55336;43.062;25.626;2022-08-20T09:31:15;41.50;20.30
68385;DHT22;55336;43.062;25.626;2022-08-20T09:33:41;41.20;20.10
68385;DHT22;55336;43.062;25.626;2022-08-20T09:36:07;40.80;20.60
68385;DHT22;55336;43.062;25.626;2022-08-20T09:38:33;41.00;21.00
68385;DHT22;55336;43.062;25.626;2022-08-20T09:40:59;41.70;20.40
68385;DHT22;55336;43.062;25.626;2022-08-20T09:43:25;42.30;19.60
68385;DHT22;55336;43.062;25.626;2022-08-20T09:45:51;42.30;18.90
68385;DHT22;55336;43.062;25.626;2022-08-20T09:48:17;42.60;19.10
68385;DHT22;55336;43.062;25.626;2022-08-20T09:50:47;42.70;17.80
68385;DHT22;55336;43.062;25.626;2022-08-20T09:53:14;42.80;17.50
68385;DHT22;55336;43.062;25.626;2022-08-20T09:55:43;42.20;19.80
68385;DHT22;55336;43.062;25.626;2022-08-20T09:58:39;42.40;18.80
68385;DHT22;55336;43.062;25.626;2022-08-20T10:01:11;41.20;19.80
68385;DHT22;55336;43.062;25.626;2022-08-20T10:03:42;40.30;22.50
68385;DHT22;55336;43.062;25.626;2022-08-20T10:06:09;40.70;21.40
68385;DHT22;55336;43.062;25.626;2022-08-20T10:08:36;39.80;22.60
68385;DHT22;55336;43.062;25.626;2022-08-20T10:11:02;38.90;24.00
68385;DHT22;55336;43.062;25.626;2022-08-20T10:13:28;39.90;23.20
68385;DHT22;55336;43.062;25.626;2022-08-20T10:15:55;40.30;22.10
68385;DHT22;55336;43.062;25.626;2022-08-20T10:18:21;40.90;20.70
68385;DHT22;55336;43.062;25.626;2022-08-20T10:20:47;41.10;20.30
68385;DHT22;55336;43.062;25.626;2022-08-20T10:23:12;41.70;19.70
68385;DHT22;55336;43.062;25.626;2022-08-20T10:25:38;41.30;20.10
68385;DHT22;55336;43.062;25.626;2022-08-20T10:28:06;41.70;20.80
68385;DHT22;55336;43.062;25.626;2022-08-20T10:30:32;41.00;21.10
68385;DHT22;55336;43.062;25.626;2022-08-20T10:32:58;41.20;20.60
68385;DHT22;55336;43.062;25.626;2022-08-20T10:35:24;42.00;19.90
68385;DHT22;55336;43.062;25.626;2022-08-20T10:37:50;42.40;18.60
68385;DHT22;55336;43.062;25.626;2022-08-20T10:40:16;42.50;18.10
68385;DHT22;55336;43.062;25.626;2022-08-20T10:42:43;41.20;19.60
68385;DHT22;55336;43.062;25.626;2022-08-20T10:45:11;40.20;21.40
68385;DHT22;55336;43.062;25.626;2022-08-20T10:47:38;39.60;22.40
68385;DHT22;55336;43.062;25.626;2022-08-20T10:50:07;39.50;26.50
68385;DHT22;55336;43.062;25.626;2022-08-20T10:52:33;40.50;22.00
68385;DHT22;55336;43.062;25.626;2022-08-20T10:54:59;40.50;20.50
68385;DHT22;55336;43.062;25.626;2022-08-20T10:57:27;41.50;19.60
68385;DHT22;55336;43.062;25.626;2022-08-20T10:59:55;42.30;18.90
68385;DHT22;55336;43.062;25.626;2022-08-20T11:02:22;42.40;19.00
68385;DHT22;55336;43.062;25.626;2022-08-20T11:04:50;42.50;17.60
68385;DHT22;55336;43.062;25.626;2022-08-20T11:07:17;41.10;19.90
68385;DHT22;55336;43.062;25.626;2022-08-20T11:09:45;41.20;20.50
68385;DHT22;55336;43.062;25.626;2022-08-20T11:12:12;41.50;20.40
68385;DHT22;55336;43.062;25.626;2022-08-20T11:14:38;40.90;20.30
68385;DHT22;55336;43.062;25.626;2022-08-20T11:17:05;40.30;21.50
68385;DHT22;55336;43.062;25.626;2022-08-20T11:19:31;40.70;20.80
68385;DHT22;55336;43.062;25.626;2022-08-20T11:21:57;40.90;20.80
68385;DHT22;55336;43.062;25.626;2022-08-20T11:24:23;41.50;19.50
68385;DHT22;55336;43.062;25.626;2022-08-20T11:26:49;41.90;18.50
68385;DHT22;55336;43.062;25.626;2022-08-20T11:29:18;42.60;18.10
68385;DHT22;55336;43.062;25.626;2022-08-20T11:31:45;42.80;17.50
68385;DHT22;55336;43.062;25.626;2022-08-20T11:34:11;42.50;18.10
68385;DHT22;55336;43.062;25.626;2022-08-20T11:36:37;42.30;18.00
68385;DHT22;55336;43.062;25.626;2022-08-20T11:39:03;41.80;18.30
68385;DHT22;55336;43.062;25.626;2022-08-20T11:41:29;41.20;20.00
68385;DHT22;55336;43.062;25.626;2022-08-20T11:43:55;41.70;19.20
68385;DHT22;55336;43.062;25.626;2022-08-20T11:46:21;42.30;19.10
68385;DHT22;55336;43.062;25.626;2022-08-20T11:48:47;42.90;17.10
68385;DHT22;55336;43.062;25.626;2022-08-20T11:51:12;43.30;17.50
68385;DHT22;55336;43.062;25.626;2022-08-20T11:53:38;41.20;20.70
68385;DHT22;55336;43.062;25.626;2022-08-20T11:56:04;41.90;19.10
68385;DHT22;55336;43.062;25.626;2022-08-20T11:58:30;42.70;18.20
68385;DHT22;55336;43.062;25.626;2022-08-20T12:00:58;43.30;16.70
68385;DHT22;55336;43.062;25.626;2022-08-20T12:03:24;43.30;16.40
68385;DHT22;55336;43.062;25.626;2022-08-20T12:05:50;43.10;16.50
68385;DHT22;55336;43.062;25.626;2022-08-20T12:08:16;42.30;17.80
68385;DHT22;55336;43.062;25.626;2022-08-20T12:10:43;42.00;20.30
68385;DHT22;55336;43.062;25.626;2022-08-20T12:13:09;41.90;17.70
68385;DHT22;55336;43.062;25.626;2022-08-20T12:15:35;42.30;17.70
68385;DHT22;55336;43.062;25.626;2022-08-20T12:18:08;43.10;17.10
68385;DHT22;55336;43.062;25.626;2022-08-20T12:20:35;43.70;16.40
68385;DHT22;55336;43.062;25.626;2022-08-20T12:23:02;43.90;15.30
68385;DHT22;55336;43.062;25.626;2022-08-20T12:25:30;43.30;16.70
68385;DHT22;55336;43.062;25.626;2022-08-20T12:27:56;42.30;18.20
68385;DHT22;55336;43.062;25.626;2022-08-20T12:30:24;42.90;18.00
68385;DHT22;55336;43.062;25.626;2022-08-20T12:32:50;43.50;16.60
68385;DHT22;55336;43.062;25.626;2022-08-20T12:35:18;43.80;16.00
68385;DHT22;55336;43.062;25.626;2022-08-20T12:37:44;44.20;15.70
68385;DHT22;55336;43.062;25.626;2022-08-20T12:40:15;44.40;15.10
68385;DHT22;55336;43.062;25.626;2022-08-20T12:42:41;43.90;15.60
68385;DHT22;55336;43.062;25.626;2022-08-20T12:45:07;44.00;15.60
68385;DHT22;55336;43.062;25.626;2022-08-20T12:47:36;44.10;15.40
68385;DHT22;55336;43.062;25.626;2022-08-20T12:50:16;43.30;16.10
68385;DHT22;55336;43.062;25.626;2022-08-20T12:52:43;42.30;17.90
68385;DHT22;55336;43.062;25.626;2022-08-20T12:55:11;41.10;18.60
68385;DHT22;55336;43.062;25.626;2022-08-20T12:57:46;40.30;20.00
68385;DHT22;55336;43.062;25.626;2022-08-20T13:02:41;39.60;23.30
68385;DHT22;55336;43.062;25.626;2022-08-20T13:05:08;39.40;26.70
68385;DHT22;55336;43.062;25.626;2022-08-20T13:07:34;39.90;22.60
68385;DHT22;55336;43.062;25.626;2022-08-20T13:10:01;40.80;21.40
68385;DHT22;55336;43.062;25.626;2022-08-20T13:12:26;41.70;19.10
68385;DHT22;55336;43.062;25.626;2022-08-20T13:14:52;42.40;18.40
68385;DHT22;55336;43.062;25.626;2022-08-20T13:17:18;42.80;17.60
68385;DHT22;55336;43.062;25.626;2022-08-20T13:19:45;43.00;17.10
68385;DHT22;55336;43.062;25.626;2022-08-20T13:22:12;42.10;18.20
68385;DHT22;55336;43.062;25.626;2022-08-20T13:24:38;41.50;19.50
68385;DHT22;55336;43.062;25.626;2022-08-20T13:27:10;40.80;20.40
68385;DHT22;55336;43.062;25.626;2022-08-20T13:29:37;40.20;21.50
68385;DHT22;55336;43.062;25.626;2022-08-20T13:32:03;39.60;23.10
68385;DHT22;55336;43.062;25.626;2022-08-20T13:34:30;39.00;23.80
68385;DHT22;55336;43.062;25.626;2022-08-20T13:36:56;39.80;22.90
68385;DHT22;55336;43.062;25.626;2022-08-20T13:39:22;40.10;23.10
68385;DHT22;55336;43.062;25.626;2022-08-20T13:41:49;40.40;22.10
68385;DHT22;55336;43.062;25.626;2022-08-20T13:44:15;40.90;20.30
68385;DHT22;55336;43.062;25.626;2022-08-20T13:46:40;40.60;21.40
68385;DHT22;55336;43.062;25.626;2022-08-20T13:49:06;40.30;22.70
68385;DHT22;55336;43.062;25.626;2022-08-20T13:51:32;39.90;21.90
68385;DHT22;55336;43.062;25.626;2022-08-20T13:53:58;39.30;24.10
68385;DHT22;55336;43.062;25.626;2022-08-20T13:56:24;40.40;21.80
68385;DHT22;55336;43.062;25.626;2022-08-20T13:58:50;41.10;20.20
68385;DHT22;55336;43.062;25.626;2022-08-20T14:01:15;41.40;19.30
68385;DHT22;55336;43.062;25.626;2022-08-20T14:03:41;41.60;19.60
68385;DHT22;55336;43.062;25.626;2022-08-20T14:06:07;41.60;19.00
68385;DHT22;55336;43.062;25.626;2022-08-20T14:08:36;41.90;19.10
68385;DHT22;55336;43.062;25.626;2022-08-20T14:11:02;41.60;19.60
68385;DHT22;55336;43.062;25.626;2022-08-20T14:13:28;41.50;18.50
68385;DHT22;55336;43.062;25.626;2022-08-20T14:15:54;41.80;18.20
68385;DHT22;55336;43.062;25.626;2022-08-20T14:18:21;41.70;18.80
68385;DHT22;55336;43.062;25.626;2022-08-20T14:20:47;41.90;17.90
68385;DHT22;55336;43.062;25.626;2022-08-20T14:23:13;41.70;18.00
68385;DHT22;55336;43.062;25.626;2022-08-20T14:25:40;41.70;18.60
68385;DHT22;55336;43.062;25.626;2022-08-20T14:28:12;41.70;18.80
68385;DHT22;55336;43.062;25.626;2022-08-20T14:30:39;41.80;17.80
68385;DHT22;55336;43.062;25.626;2022-08-20T14:33:05;41.80;18.30
68385;DHT22;55336;43.062;25.626;2022-08-20T14:35:31;41.80;18.20
68385;DHT22;55336;43.062;25.626;2022-08-20T14:37:57;41.70;18.00
68385;DHT22;55336;43.062;25.626;2022-08-20T14:40:25;41.70;19.30
68385;DHT22;55336;43.062;25.626;2022-08-20T14:42:51;41.70;18.50
68385;DHT22;55336;43.062;25.626;2022-08-20T14:45:18;41.10;19.20
68385;DHT22;55336;43.062;25.626;2022-08-20T14:47:54;40.50;20.00
68385;DHT22;55336;43.062;25.626;2022-08-20T14:50:27;39.30;20.90
68385;DHT22;55336;43.062;25.626;2022-08-20T14:52:55;39.70;21.80
68385;DHT22;55336;43.062;25.626;2022-08-20T14:55:23;39.20;23.80
68385;DHT22;55336;43.062;25.626;2022-08-20T14:57:49;39.40;21.40
68385;DHT22;55336;43.062;25.626;2022-08-20T15:00:27;39.80;21.50
68385;DHT22;55336;43.062;25.626;2022-08-20T15:02:54;39.40;22.30
68385;DHT22;55336;43.062;25.626;2022-08-20T15:05:19;39.80;21.20
68385;DHT22;55336;43.062;25.626;2022-08-20T15:07:49;39.90;21.10
68385;DHT22;55336;43.062;25.626;2022-08-20T15:10:21;39.60;21.70
68385;DHT22;55336;43.062;25.626;2022-08-20T15:12:48;39.20;22.20
68385;DHT22;55336;43.062;25.626;2022-08-20T15:15:15;39.20;21.70
68385;DHT22;55336;43.062;25.626;2022-08-20T15:17:54;39.30;22.00
68385;DHT22;55336;43.062;25.626;2022-08-20T15:20:23;39.20;22.70
68385;DHT22;55336;43.062;25.626;2022-08-20T15:22:49;39.30;21.60
68385;DHT22;55336;43.062;25.626;2022-08-20T15:25:18;39.20;21.70
68385;DHT22;55336;43.062;25.626;2022-08-20T15:27:45;38.70;22.30
68385;DHT22;55336;43.062;25.626;2022-08-20T15:30:15;38.90;22.00
68385;DHT22;55336;43.062;25.626;2022-08-20T15:32:42;38.90;22.10